Time;durP1;ratioP1;P1;durP2;ratioP2;P2;SDS_P1;SDS_P2;PMS_P1;PMS_P2;Temp;Humidity;BMP_temperature;BMP_pressure;BME280_temperature;BME280_humidity;BME280_pressure;Samples;Min_cycle;Max_cycle;Signal;HPM_P1;HPM_P2
2020/12/03 00:00:41;;;;;;;27.90;11.40;;;6.30;99.90;;;;;;4999359;28;20038;-59
2020/12/03 00:03:21;;;;;;;29.90;10.50;;;6.20;99.90;;;;;;5000077;28;20038;-64
2020/12/03 00:05:54;;;;;;;30.92;11.45;;;6.20;99.90;;;;;;4998294;28;20034;-62
2020/12/03 00:08:20;;;;;;;35.53;11.82;;;6.10;99.90;;;;;;4997061;28;20109;-60
2020/12/03 00:10:46;;;;;;;34.97;11.80;;;6.10;99.90;;;;;;4998684;28;20462;-61
2020/12/03 00:13:18;;;;;;;29.75;10.73;;;6.10;99.90;;;;;;4997510;28;20042;-58
2020/12/03 00:15:49;;;;;;;30.80;11.68;;;6.10;99.90;;;;;;4996544;28;20042;-62
2020/12/03 00:18:15;;;;;;;32.10;11.45;;;6.10;99.90;;;;;;4996424;28;20043;-61
2020/12/03 00:20:40;;;;;;;44.70;11.95;;;6.10;99.90;;;;;;4999701;28;20041;-63
2020/12/03 00:23:06;;;;;;;32.67;11.05;;;6.10;99.90;;;;;;4998411;28;20034;-58
2020/12/03 00:25:32;;;;;;;28.15;11.40;;;6.00;99.90;;;;;;4995077;28;20058;-60
2020/12/03 00:27:57;;;;;;;29.65;9.55;;;6.00;99.90;;;;;;4996325;28;20026;-61
2020/12/03 00:30:24;;;;;;;25.70;9.98;;;6.00;99.90;;;;;;4994252;28;20030;-59
2020/12/03 00:32:50;;;;;;;31.00;9.88;;;6.00;99.90;;;;;;4999702;28;20030;-62
2020/12/03 00:35:17;;;;;;;26.55;10.27;;;6.00;99.90;;;;;;4998098;28;20076;-63
2020/12/03 00:37:43;;;;;;;29.23;10.23;;;5.90;99.90;;;;;;4996005;28;20095;-58
2020/12/03 00:40:09;;;;;;;23.60;9.70;;;5.90;99.90;;;;;;4996736;28;20038;-59
2020/12/03 00:42:34;;;;;;;25.00;8.88;;;5.90;99.90;;;;;;4997415;28;20039;-62
2020/12/03 00:45:00;;;;;;;27.65;9.57;;;5.90;99.90;;;;;;4998965;28;20109;-61
2020/12/03 00:47:26;;;;;;;31.65;10.25;;;5.90;99.90;;;;;;4997305;28;20493;-60
2020/12/03 00:49:52;;;;;;;27.80;9.25;;;5.90;99.90;;;;;;4994138;28;20037;-61
2020/12/03 00:52:18;;;;;;;31.80;10.30;;;5.90;99.90;;;;;;4996236;28;20046;-60
2020/12/03 00:54:43;;;;;;;32.17;9.57;;;5.90;99.90;;;;;;4995140;28;20045;-60
2020/12/03 00:57:10;;;;;;;27.33;10.02;;;6.00;99.90;;;;;;5000582;28;20396;-60
2020/12/03 00:59:39;;;;;;;29.88;9.82;;;6.00;99.90;;;;;;4997440;28;20554;-61
2020/12/03 01:02:13;;;;;;;26.83;9.60;;;6.00;99.90;;;;;;4998473;28;20034;-61
2020/12/03 01:04:39;;;;;;;21.17;9.40;;;6.00;99.90;;;;;;4998453;28;20356;-59
2020/12/03 01:07:05;;;;;;;20.88;8.93;;;6.00;99.90;;;;;;4997790;28;20282;-60
2020/12/03 01:09:32;;;;;;;25.33;9.32;;;6.00;99.90;;;;;;4998984;28;20038;-62
2020/12/03 01:11:57;;;;;;;27.75;9.68;;;6.00;99.90;;;;;;4997473;28;20037;-63
2020/12/03 01:14:23;;;;;;;20.63;8.55;;;6.00;99.90;;;;;;4999243;28;20034;-62
2020/12/03 01:16:49;;;;;;;28.48;8.07;;;6.00;99.90;;;;;;4994917;28;20084;-59
2020/12/03 01:19:14;;;;;;;25.55;7.45;;;6.10;99.90;;;;;;4996531;28;20050;-61
2020/12/03 01:21:40;;;;;;;24.65;8.98;;;6.10;99.90;;;;;;4998177;28;20038;-62
2020/12/03 01:24:06;;;;;;;23.13;7.00;;;6.10;99.90;;;;;;4998024;28;20026;-60
2020/12/03 01:26:31;;;;;;;21.17;8.45;;;6.10;99.90;;;;;;4999241;28;20399;-62
2020/12/03 01:28:57;;;;;;;20.10;7.97;;;6.10;99.90;;;;;;5002267;28;20030;-61
2020/12/03 01:31:23;;;;;;;19.52;7.20;;;6.10;99.90;;;;;;5000691;28;20034;-61
2020/12/03 01:33:48;;;;;;;23.02;7.47;;;6.20;99.90;;;;;;5004656;28;20038;-61
2020/12/03 01:36:15;;;;;;;26.58;6.70;;;6.20;99.90;;;;;;5000597;28;20085;-59
2020/12/03 01:38:42;;;;;;;18.75;6.25;;;6.10;99.90;;;;;;5003704;28;20030;-61
2020/12/03 01:41:07;;;;;;;19.83;6.68;;;6.10;99.90;;;;;;5001419;28;20025;-62
2020/12/03 01:43:33;;;;;;;22.63;6.93;;;6.10;99.90;;;;;;5002721;28;20041;-61
2020/12/03 01:46:01;;;;;;;18.50;7.05;;;6.10;99.90;;;;;;5003430;28;20076;-60
2020/12/03 01:48:27;;;;;;;19.52;6.63;;;6.20;99.90;;;;;;5002843;28;20041;-61
2020/12/03 01:50:52;;;;;;;27.58;6.78;;;6.10;99.90;;;;;;5000843;28;20035;-62
2020/12/03 01:53:20;;;;;;;25.10;6.65;;;6.20;99.90;;;;;;5003595;28;20041;-59
2020/12/03 01:55:48;;;;;;;23.17;6.15;;;6.10;99.90;;;;;;4996326;28;20160;-62
2020/12/03 01:58:25;;;;;;;13.05;5.28;;;6.10;99.90;;;;;;5004819;28;20040;-60
2020/12/03 02:00:51;;;;;;;16.25;5.15;;;6.20;99.90;;;;;;4998990;28;20034;-63
2020/12/03 02:03:17;;;;;;;23.13;6.45;;;6.20;99.90;;;;;;5005092;28;20052;-61
2020/12/03 02:05:42;;;;;;;14.70;4.53;;;6.20;99.90;;;;;;5002151;28;20074;-62
2020/12/03 02:08:08;;;;;;;16.35;5.28;;;6.20;99.90;;;;;;5004483;28;20032;-63
2020/12/03 02:10:33;;;;;;;28.88;6.60;;;6.20;99.90;;;;;;5003302;28;20041;-59
2020/12/03 02:12:59;;;;;;;18.30;5.03;;;6.20;99.90;;;;;;5003482;28;20022;-60
2020/12/03 02:15:25;;;;;;;12.57;5.30;;;6.20;99.90;;;;;;5001359;28;20510;-61
2020/12/03 02:17:50;;;;;;;26.65;5.90;;;6.20;99.90;;;;;;4998697;28;20106;-62
2020/12/03 02:20:20;;;;;;;18.63;4.82;;;6.20;99.90;;;;;;5001857;28;20381;-58
2020/12/03 02:22:46;;;;;;;14.27;4.38;;;6.20;99.90;;;;;;4995073;28;20022;-60
2020/12/03 02:25:13;;;;;;;13.80;4.28;;;6.20;99.90;;;;;;5001987;28;20056;-59
2020/12/03 02:27:40;;;;;;;13.93;3.75;;;6.20;99.90;;;;;;4997278;28;20522;-59
2020/12/03 02:30:08;;;;;;;20.33;4.38;;;6.20;99.90;;;;;;5001144;28;20022;-59
2020/12/03 02:32:34;;;;;;;17.08;4.80;;;6.20;99.90;;;;;;4999473;28;20037;-59
2020/12/03 02:35:00;;;;;;;25.58;4.55;;;6.10;99.90;;;;;;5000214;28;20038;-61
2020/12/03 02:37:29;;;;;;;14.52;3.75;;;6.10;99.90;;;;;;5000365;28;20114;-60
2020/12/03 02:39:55;;;;;;;10.90;3.83;;;6.10;99.90;;;;;;4998639;28;20042;-61
2020/12/03 02:42:21;;;;;;;10.93;3.85;;;6.10;99.90;;;;;;5000976;28;20029;-60
2020/12/03 02:44:48;;;;;;;26.58;4.70;;;6.10;99.90;;;;;;4998528;28;20077;-59
2020/12/03 02:47:17;;;;;;;15.18;3.75;;;6.10;99.90;;;;;;4995710;28;20042;-62
2020/12/03 02:49:44;;;;;;;12.77;3.50;;;6.20;99.90;;;;;;4994201;28;20654;-59
2020/12/03 02:52:14;;;;;;;14.18;3.70;;;6.10;99.90;;;;;;5000919;28;20038;-59
2020/12/03 02:54:41;;;;;;;21.45;3.97;;;6.10;99.90;;;;;;4998231;28;20053;-63
2020/12/03 02:57:07;;;;;;;20.25;3.83;;;6.10;99.90;;;;;;4998004;28;20041;-63
2020/12/03 02:59:33;;;;;;;15.07;4.72;;;6.20;99.90;;;;;;5000054;28;20084;-60
2020/12/03 03:01:58;;;;;;;19.95;3.78;;;6.20;99.90;;;;;;4999862;28;20031;-61
2020/12/03 03:04:25;;;;;;;14.02;4.70;;;6.10;99.90;;;;;;4998462;28;20046;-60
2020/12/03 03:06:53;;;;;;;14.05;3.67;;;6.20;99.90;;;;;;5000675;28;20080;-59
2020/12/03 03:09:21;;;;;;;14.07;3.97;;;6.20;99.90;;;;;;4996581;28;20038;-62
2020/12/03 03:11:46;;;;;;;16.63;4.57;;;6.20;99.90;;;;;;5000832;28;20030;-60
2020/12/03 03:14:12;;;;;;;14.82;3.38;;;6.20;99.90;;;;;;4997951;28;20034;-61
2020/12/03 03:16:38;;;;;;;18.90;4.75;;;6.20;99.90;;;;;;4999820;28;20030;-62
2020/12/03 03:19:03;;;;;;;24.63;4.05;;;6.20;99.90;;;;;;4997563;28;20045;-62
2020/12/03 03:21:30;;;;;;;16.70;5.43;;;6.20;99.90;;;;;;4997629;28;20074;-59
2020/12/03 03:23:56;;;;;;;22.50;3.92;;;6.20;99.90;;;;;;4999538;28;20651;-59
2020/12/03 03:26:22;;;;;;;13.85;3.47;;;6.20;99.90;;;;;;4998087;28;20042;-59
2020/12/03 03:28:47;;;;;;;16.23;3.70;;;6.20;99.90;;;;;;5000120;28;20566;-62
2020/12/03 03:31:13;;;;;;;14.30;4.50;;;6.20;99.90;;;;;;4997271;28;20129;-63
2020/12/03 03:33:39;;;;;;;14.70;4.90;;;6.20;99.90;;;;;;5000029;28;20096;-60
2020/12/03 03:36:05;;;;;;;10.88;3.38;;;6.20;99.90;;;;;;4998258;28;20038;-59
2020/12/03 03:38:30;;;;;;;16.23;4.05;;;6.20;99.90;;;;;;4998680;28;20384;-60
2020/12/03 03:40:56;;;;;;;15.63;3.70;;;6.20;99.90;;;;;;4999008;28;20076;-62
2020/12/03 03:43:22;;;;;;;16.25;4.22;;;6.20;99.90;;;;;;4997116;28;20278;-60
2020/12/03 03:45:47;;;;;;;14.27;3.97;;;6.20;99.90;;;;;;4999632;28;20042;-62
2020/12/03 03:48:13;;;;;;;17.00;4.13;;;6.20;99.90;;;;;;4997284;28;20092;-64
2020/12/03 03:50:38;;;;;;;15.07;3.55;;;6.20;99.90;;;;;;5000146;28;20036;-59
2020/12/03 03:53:04;;;;;;;14.35;3.72;;;6.20;99.90;;;;;;4996781;28;20499;-59
2020/12/03 03:55:29;;;;;;;12.93;3.70;;;6.20;99.90;;;;;;5001085;28;20042;-61
2020/12/03 03:57:55;;;;;;;12.50;4.15;;;6.20;99.90;;;;;;4998135;28;20101;-59
2020/12/03 04:00:21;;;;;;;16.08;4.20;;;6.20;99.90;;;;;;4999140;28;20508;-59
2020/12/03 04:02:47;;;;;;;12.57;3.75;;;6.20;99.90;;;;;;4996487;28;20517;-60
2020/12/03 04:05:15;;;;;;;13.65;3.65;;;6.20;99.90;;;;;;4996827;28;20046;-60
2020/12/03 04:07:40;;;;;;;15.40;3.60;;;6.20;99.90;;;;;;4999822;28;20060;-60
2020/12/03 04:10:07;;;;;;;15.00;5.07;;;6.20;99.90;;;;;;4996956;28;20062;-61
2020/12/03 04:12:33;;;;;;;18.10;4.90;;;6.20;99.90;;;;;;4999225;28;20040;-59
2020/12/03 04:15:00;;;;;;;18.10;5.90;;;6.20;99.90;;;;;;4997563;28;20030;-58
2020/12/03 04:17:29;;;;;;;14.15;4.13;;;6.20;99.90;;;;;;4997957;28;20049;-60
2020/12/03 04:19:55;;;;;;;13.98;4.28;;;6.20;99.90;;;;;;4997768;28;20526;-59
2020/12/03 04:22:21;;;;;;;15.63;4.10;;;6.20;99.90;;;;;;4997776;28;20038;-62
2020/12/03 04:24:47;;;;;;;14.00;4.07;;;6.20;99.90;;;;;;4997514;28;20057;-59
2020/12/03 04:27:13;;;;;;;12.07;4.32;;;6.20;99.90;;;;;;4996765;28;20080;-62
2020/12/03 04:29:38;;;;;;;21.15;5.65;;;6.20;99.90;;;;;;4999817;28;20038;-62
2020/12/03 04:32:05;;;;;;;13.10;4.82;;;6.30;99.90;;;;;;4996754;28;20045;-59
2020/12/03 04:34:30;;;;;;;16.67;4.63;;;6.20;99.90;;;;;;5028350;23;20069;-68
2020/12/03 04:36:56;;;;;;;15.30;5.07;;;6.20;99.90;;;;;;4998567;28;20057;-66
2020/12/03 04:39:21;;;;;;;13.27;5.80;;;6.30;99.90;;;;;;5015006;28;20035;-66
2020/12/03 04:41:47;;;;;;;13.35;4.97;;;6.30;99.90;;;;;;4999331;28;20026;-70
2020/12/03 04:44:27;;;;;;;20.90;5.25;;;6.20;99.90;;;;;;4997052;28;20061;-67
2020/12/03 04:47:14;;;;;;;25.50;5.78;;;6.20;99.90;;;;;;4993903;28;20438;-67
2020/12/03 04:50:24;;;;;;;14.68;5.78;;;6.20;99.90;;;;;;4993350;28;20034;-66
2020/12/03 04:53:29;;;;;;;20.33;6.20;;;6.30;99.90;;;;;;4983307;28;20562;-67
2020/12/03 04:56:06;;;;;;;20.90;6.57;;;6.30;99.90;;;;;;4997097;28;20695;-67
2020/12/03 04:58:59;;;;;;;12.85;5.93;;;6.30;99.90;;;;;;4996588;28;20279;-69
2020/12/03 05:01:57;;;;;;;20.67;6.50;;;6.30;99.90;;;;;;4997405;28;20517;-67
2020/12/03 05:04:57;;;;;;;19.02;6.40;;;6.30;99.90;;;;;;4997122;28;20126;-66
2020/12/03 05:07:28;;;;;;;18.58;6.57;;;6.20;99.90;;;;;;5000590;28;20038;-66
2020/12/03 05:10:12;;;;;;;22.13;7.03;;;6.30;99.90;;;;;;5001882;28;20041;-67
2020/12/03 05:12:41;;;;;;;20.92;7.43;;;6.30;99.90;;;;;;4995283;28;20045;-67
2020/12/03 05:15:23;;;;;;;20.05;9.02;;;6.30;99.90;;;;;;4996738;28;20487;-67
2020/12/03 05:18:20;;;;;;;23.92;7.55;;;6.30;99.90;;;;;;4996769;28;20066;-67
2020/12/03 05:20:49;;;;;;;18.20;6.93;;;6.30;99.90;;;;;;4998438;28;20481;-67
2020/12/03 05:23:27;;;;;;;22.50;7.70;;;6.20;99.90;;;;;;5002975;28;20030;-67
2020/12/03 05:25:55;;;;;;;20.15;7.25;;;6.30;99.90;;;;;;5000777;28;20030;-67
2020/12/03 05:28:20;;;;;;;26.35;8.35;;;6.30;99.90;;;;;;5000750;28;20029;-67
2020/12/03 05:30:50;;;;;;;23.92;7.60;;;6.30;99.90;;;;;;5000130;28;20033;-67
2020/12/03 05:33:16;;;;;;;25.10;8.45;;;6.30;99.90;;;;;;4995903;28;20512;-67
2020/12/03 05:35:42;;;;;;;21.45;8.68;;;6.30;99.90;;;;;;4995613;28;20122;-73
2020/12/03 05:38:23;;;;;;;28.70;8.45;;;6.30;99.90;;;;;;4997829;28;20363;-68
2020/12/03 05:41:01;;;;;;;18.48;8.73;;;6.30;99.90;;;;;;4996737;28;20066;-67
2020/12/03 05:43:28;;;;;;;18.73;8.63;;;6.30;99.90;;;;;;4999059;28;20069;-67
2020/12/03 05:45:59;;;;;;;26.83;9.52;;;6.30;99.90;;;;;;4999425;28;20182;-67
2020/12/03 05:48:24;;;;;;;23.42;9.07;;;6.30;99.90;;;;;;4999791;28;20037;-67
2020/12/03 05:50:52;;;;;;;27.00;9.77;;;6.20;99.90;;;;;;5001162;28;20030;-67
2020/12/03 05:53:26;;;;;;;26.40;9.52;;;6.20;99.90;;;;;;5001613;28;20045;-66
2020/12/03 05:56:11;;;;;;;21.98;9.50;;;6.20;99.90;;;;;;4987133;28;21471;-67
2020/12/03 05:58:37;;;;;;;20.33;8.95;;;6.20;99.90;;;;;;4997136;28;20529;-67
2020/12/03 06:01:18;;;;;;;26.88;10.57;;;6.20;99.90;;;;;;4997006;28;20034;-67
2020/12/03 06:04:19;;;;;;;20.92;9.07;;;6.20;99.90;;;;;;5000129;28;20049;-67
2020/12/03 06:06:44;;;;;;;18.00;9.43;;;6.20;99.90;;;;;;4999496;28;20042;-67
2020/12/03 06:09:44;;;;;;;24.20;9.38;;;6.10;99.90;;;;;;4999320;28;20034;-67
2020/12/03 06:12:31;;;;;;;22.90;8.90;;;6.10;99.90;;;;;;4997303;28;20038;-67
2020/12/03 06:15:22;;;;;;;22.40;9.60;;;6.10;99.90;;;;;;4997194;28;20479;-68
2020/12/03 06:18:25;;;;;;;20.08;8.93;;;6.20;99.90;;;;;;4999116;28;20537;-70
2020/12/03 06:20:52;;;;;;;25.80;9.82;;;6.20;99.90;;;;;;5001776;28;20026;-68
2020/12/03 06:23:45;;;;;;;24.77;9.52;;;6.20;99.90;;;;;;5000877;28;20042;-67
2020/12/03 06:26:32;;;;;;;18.92;9.27;;;6.20;99.90;;;;;;4997530;28;20544;-67
2020/12/03 06:29:20;;;;;;;36.38;9.88;;;6.20;99.90;;;;;;4998983;28;20089;-68
2020/12/03 06:31:58;;;;;;;23.25;9.80;;;6.20;99.90;;;;;;4998953;28;20026;-68
2020/12/03 06:34:39;;;;;;;23.00;9.68;;;6.20;99.90;;;;;;5001593;28;20697;-68
2020/12/03 06:37:18;;;;;;;19.42;9.90;;;6.20;99.90;;;;;;4995366;28;20407;-66
2020/12/03 06:39:57;;;;;;;22.90;9.55;;;6.20;99.90;;;;;;5004303;28;20034;-66
2020/12/03 06:42:37;;;;;;;22.30;9.75;;;6.20;99.90;;;;;;5000702;28;20102;-67
2020/12/03 06:45:33;;;;;;;22.10;9.10;;;6.20;99.90;;;;;;4994666;28;20058;-67
2020/12/03 06:48:10;;;;;;;26.85;11.38;;;6.20;99.90;;;;;;4996502;28;20077;-66
2020/12/03 06:50:59;;;;;;;32.08;12.15;;;6.20;99.90;;;;;;4998649;28;20030;-67
2020/12/03 06:53:50;;;;;;;24.45;10.18;;;6.20;99.90;;;;;;5003368;28;20056;-67
2020/12/03 06:56:46;;;;;;;29.80;11.63;;;6.20;99.90;;;;;;4998169;28;20077;-67
2020/12/03 06:59:53;;;;;;;25.42;11.13;;;6.20;99.90;;;;;;4997064;28;20555;-67
2020/12/03 07:03:02;;;;;;;26.40;11.57;;;6.20;99.90;;;;;;4997604;28;20042;-68
2020/12/03 07:05:53;;;;;;;33.10;13.38;;;6.30;99.90;;;;;;4990214;28;20035;-67
2020/12/03 07:08:46;;;;;;;38.17;12.05;;;6.30;99.90;;;;;;4998447;28;20058;-68
2020/12/03 07:11:27;;;;;;;30.67;12.23;;;6.20;99.90;;;;;;4997246;28;20122;-68
2020/12/03 07:14:40;;;;;;;27.67;11.10;;;6.30;99.90;;;;;;4998581;28;20134;-68
2020/12/03 07:17:11;;;;;;;25.52;12.05;;;6.30;99.90;;;;;;4993255;28;20045;-66
2020/12/03 07:20:01;;;;;;;27.55;12.00;;;6.40;99.90;;;;;;5001718;28;20033;-68
2020/12/03 07:22:35;;;;;;;34.88;12.65;;;6.40;99.90;;;;;;5000706;28;20410;-67
2020/12/03 07:25:03;;;;;;;31.50;11.70;;;6.40;99.90;;;;;;4994201;28;20165;-67
2020/12/03 07:27:57;;;;;;;30.15;11.10;;;6.50;99.90;;;;;;4993279;28;20036;-67
2020/12/03 07:30:32;;;;;;;30.92;13.23;;;6.40;99.90;;;;;;4998468;28;20490;-67
2020/12/03 07:33:14;;;;;;;30.13;12.30;;;6.40;99.90;;;;;;4992586;28;20034;-67
2020/12/03 07:35:46;;;;;;;30.40;12.10;;;6.50;99.90;;;;;;4997425;28;20205;-67
2020/12/03 07:38:18;;;;;;;26.88;11.45;;;6.50;99.90;;;;;;4999240;28;20057;-67
2020/12/03 07:40:44;;;;;;;33.53;12.73;;;6.50;99.90;;;;;;4998803;28;20034;-67
2020/12/03 07:43:27;;;;;;;29.17;12.18;;;6.50;99.90;;;;;;4995857;28;20044;-67
2020/12/03 07:45:54;;;;;;;28.95;12.73;;;6.50;99.90;;;;;;5000738;28;20034;-67
2020/12/03 07:48:31;;;;;;;38.08;12.75;;;6.40;99.90;;;;;;4997938;28;20045;-68
2020/12/03 07:51:02;;;;;;;34.15;13.02;;;6.50;99.90;;;;;;4991802;28;20125;-66
2020/12/03 07:53:31;;;;;;;37.03;14.32;;;6.50;99.90;;;;;;4995622;28;20033;-67
2020/12/03 07:55:57;;;;;;;35.22;14.10;;;6.40;99.90;;;;;;4993111;28;20041;-67
2020/12/03 07:58:43;;;;;;;33.95;14.85;;;6.40;99.90;;;;;;4995978;28;20030;-65
2020/12/03 08:01:27;;;;;;;41.95;16.45;;;6.50;99.90;;;;;;4995605;28;20049;-66
2020/12/03 08:04:20;;;;;;;41.10;15.80;;;6.50;99.90;;;;;;4996766;28;20041;-68
2020/12/03 08:07:04;;;;;;;42.25;16.58;;;6.50;99.90;;;;;;4999690;28;20124;-66
2020/12/03 08:09:41;;;;;;;37.60;15.60;;;6.50;99.90;;;;;;4996258;28;20100;-66
2020/12/03 08:12:30;;;;;;;37.83;14.50;;;6.50;99.90;;;;;;4997591;28;20065;-66
2020/12/03 08:14:58;;;;;;;42.45;15.98;;;6.50;99.90;;;;;;4991558;28;20038;-67
2020/12/03 08:17:23;;;;;;;44.78;17.73;;;6.50;99.90;;;;;;4995447;28;20058;-67
2020/12/03 08:20:04;;;;;;;40.80;15.63;;;6.50;99.90;;;;;;4991537;28;20070;-65
2020/12/03 08:22:33;;;;;;;34.67;14.93;;;6.50;99.90;;;;;;4996301;28;20030;-67
2020/12/03 08:25:09;;;;;;;47.90;16.45;;;6.50;99.90;;;;;;4999911;28;20109;-67
2020/12/03 08:27:36;;;;;;;43.63;16.33;;;6.50;99.90;;;;;;4997548;28;20096;-68
2020/12/03 08:30:01;;;;;;;44.85;15.27;;;6.60;99.90;;;;;;4999689;28;20558;-67
2020/12/03 08:33:15;;;;;;;50.20;16.10;;;6.60;99.90;;;;;;4996453;28;20103;-66
2020/12/03 08:35:48;;;;;;;45.80;16.63;;;6.60;99.90;;;;;;4993746;28;20070;-67
2020/12/03 08:38:14;;;;;;;45.90;17.17;;;6.60;99.90;;;;;;4997745;28;20044;-67
2020/12/03 08:40:40;;;;;;;44.20;16.50;;;6.60;99.90;;;;;;4999304;28;20039;-67
2020/12/03 08:43:11;;;;;;;43.40;16.05;;;6.60;99.90;;;;;;4998705;28;20045;-66
2020/12/03 08:45:48;;;;;;;40.10;15.10;;;6.60;99.90;;;;;;4997715;28;20081;-67
2020/12/03 08:48:15;;;;;;;37.78;14.70;;;6.60;99.90;;;;;;4997382;28;20152;-67
2020/12/03 08:50:41;;;;;;;34.47;14.55;;;6.60;99.90;;;;;;4998390;28;20026;-68
2020/12/03 08:53:09;;;;;;;37.40;14.45;;;6.60;99.90;;;;;;4995489;28;20034;-67
2020/12/03 08:55:40;;;;;;;45.65;15.63;;;6.60;99.90;;;;;;4989229;28;20084;-67
2020/12/03 08:58:12;;;;;;;34.78;14.05;;;6.60;99.90;;;;;;4996920;28;20054;-66
2020/12/03 09:00:42;;;;;;;37.80;13.45;;;6.60;99.90;;;;;;4998086;28;20372;-67
2020/12/03 09:03:12;;;;;;;29.85;12.95;;;6.60;99.90;;;;;;4993033;28;20034;-67
2020/12/03 09:05:42;;;;;;;30.75;13.88;;;6.60;99.90;;;;;;4986619;28;20085;-68
2020/12/03 09:08:09;;;;;;;29.50;12.98;;;6.60;99.90;;;;;;4989388;28;20026;-67
2020/12/03 09:10:35;;;;;;;32.60;13.13;;;6.60;99.90;;;;;;4988090;28;20546;-66
2020/12/03 09:13:01;;;;;;;30.48;12.93;;;6.50;99.90;;;;;;4987451;28;20034;-66
2020/12/03 09:15:28;;;;;;;30.65;12.82;;;6.50;99.90;;;;;;4989603;28;20121;-67
2020/12/03 09:17:58;;;;;;;32.92;12.55;;;6.60;99.90;;;;;;4988810;28;20034;-66
2020/12/03 09:20:24;;;;;;;25.20;11.93;;;6.60;99.90;;;;;;4990792;28;20113;-67
2020/12/03 09:22:49;;;;;;;25.60;12.45;;;6.60;99.90;;;;;;4988120;28;20068;-66
2020/12/03 09:25:15;;;;;;;32.97;12.50;;;6.60;99.90;;;;;;4988133;28;20030;-66
2020/12/03 09:27:48;;;;;;;25.70;10.85;;;6.70;99.90;;;;;;4988604;28;20035;-67
2020/12/03 09:30:26;;;;;;;22.20;10.15;;;6.60;99.90;;;;;;4988388;28;20046;-67
2020/12/03 09:32:57;;;;;;;19.98;9.48;;;6.60;99.90;;;;;;4989706;28;20062;-67
2020/12/03 09:35:24;;;;;;;20.33;9.82;;;6.60;99.90;;;;;;4988897;28;20464;-68
2020/12/03 09:37:50;;;;;;;21.13;9.48;;;6.70;99.90;;;;;;4988429;28;20120;-68
2020/12/03 09:40:16;;;;;;;16.92;8.85;;;6.70;99.90;;;;;;4989125;28;20130;-67
2020/12/03 09:42:48;;;;;;;21.25;8.60;;;6.70;99.90;;;;;;4988398;28;20037;-67
2020/12/03 09:45:19;;;;;;;20.85;8.75;;;6.60;99.90;;;;;;4987436;28;20395;-67
2020/12/03 09:47:45;;;;;;;;;;;6.60;99.90;;;;;;4990526;28;20034;-67
2020/12/03 09:50:13;;;;;;;19.05;7.85;;;6.60;99.90;;;;;;4990863;28;20012;-66
2020/12/03 09:52:44;;;;;;;16.65;8.15;;;6.60;99.90;;;;;;4991646;28;20034;-67
2020/12/03 09:55:11;;;;;;;16.40;8.23;;;6.70;99.90;;;;;;4993151;28;20125;-67
2020/12/03 09:57:37;;;;;;;21.63;9.30;;;6.60;99.90;;;;;;4992269;28;20026;-68
2020/12/03 10:00:06;;;;;;;20.60;8.18;;;6.70;99.90;;;;;;4991165;28;20038;-70
2020/12/03 10:02:57;;;;;;;15.05;7.30;;;6.70;99.90;;;;;;4992847;28;20022;-67
2020/12/03 10:05:53;;;;;;;18.23;8.23;;;6.70;99.90;;;;;;4991100;28;20030;-67
2020/12/03 10:08:31;;;;;;;18.33;7.53;;;6.70;99.90;;;;;;4990962;28;20038;-67
2020/12/03 10:11:35;;;;;;;18.08;7.88;;;6.70;99.90;;;;;;4990854;28;20034;-68
2020/12/03 10:14:38;;;;;;;15.07;7.95;;;6.70;99.90;;;;;;4988660;28;20110;-68
2020/12/03 10:17:06;;;;;;;14.93;7.88;;;6.80;99.90;;;;;;4990713;28;20042;-65
2020/12/03 10:19:41;;;;;;;19.73;8.52;;;6.70;99.90;;;;;;4990763;28;20454;-66
2020/12/03 10:22:14;;;;;;;21.10;8.73;;;6.70;99.90;;;;;;4988523;28;20180;-67
2020/12/03 10:24:47;;;;;;;16.48;7.72;;;6.70;99.90;;;;;;4991425;28;20031;-66
2020/12/03 10:27:19;;;;;;;15.23;8.13;;;6.70;99.90;;;;;;4991903;28;20022;-67
2020/12/03 10:30:02;;;;;;;18.90;8.80;;;6.70;99.90;;;;;;4989489;28;20525;-66
2020/12/03 10:32:28;;;;;;;20.73;8.85;;;6.70;99.90;;;;;;4990377;28;20092;-67
2020/12/03 10:34:54;;;;;;;16.08;7.47;;;6.70;99.90;;;;;;5014286;23;20038;-62
2020/12/03 10:37:35;;;;;;;18.52;8.73;;;6.70;99.90;;;;;;4984108;28;20026;-62
2020/12/03 10:40:15;;;;;;;18.65;8.23;;;6.70;99.90;;;;;;4991418;28;20297;-61
2020/12/03 10:43:10;;;;;;;27.75;9.35;;;6.70;99.90;;;;;;4989479;28;20034;-62
2020/12/03 10:45:40;;;;;;;19.48;7.93;;;6.70;99.90;;;;;;4968989;28;20042;-60
2020/12/03 10:48:26;;;;;;;21.65;9.18;;;6.70;99.90;;;;;;4967604;28;20045;-60
2020/12/03 10:50:57;;;;;;;16.58;8.35;;;6.70;99.90;;;;;;4968843;28;20055;-61
2020/12/03 10:53:25;;;;;;;18.65;9.25;;;6.70;99.90;;;;;;4968658;28;20498;-62
2020/12/03 10:55:58;;;;;;;20.48;8.35;;;6.70;99.90;;;;;;4969747;28;20065;-62
2020/12/03 10:58:29;;;;;;;18.35;8.93;;;6.70;99.90;;;;;;4971520;28;20072;-61
2020/12/03 11:00:56;;;;;;;18.88;8.52;;;6.70;99.90;;;;;;4967449;28;20127;-61
2020/12/03 11:03:28;;;;;;;20.52;8.57;;;6.80;99.90;;;;;;4970223;28;20042;-61
2020/12/03 11:05:55;;;;;;;16.98;7.80;;;6.80;99.90;;;;;;4969548;28;20287;-62
2020/12/03 11:08:22;;;;;;;21.67;9.55;;;6.80;99.90;;;;;;4971731;28;20038;-62
2020/12/03 11:10:52;;;;;;;16.80;7.72;;;6.80;99.90;;;;;;4968455;28;20071;-62
2020/12/03 11:13:21;;;;;;;19.13;8.20;;;6.80;99.90;;;;;;4970573;28;20066;-61
2020/12/03 11:15:49;;;;;;;18.52;8.50;;;6.80;99.90;;;;;;4970840;28;20066;-61
2020/12/03 11:18:21;;;;;;;18.20;7.50;;;6.80;99.90;;;;;;4970699;28;20322;-62
2020/12/03 11:20:59;;;;;;;17.70;7.72;;;6.80;99.90;;;;;;4968046;28;20033;-60
2020/12/03 11:23:29;;;;;;;17.27;8.13;;;6.90;99.90;;;;;;4975019;28;20399;-62
2020/12/03 11:26:15;;;;;;;24.67;8.50;;;6.80;99.90;;;;;;4968973;28;20039;-62
2020/12/03 11:28:40;;;;;;;17.40;7.60;;;6.80;99.90;;;;;;4968468;28;20049;-61
2020/12/03 11:31:08;;;;;;;18.48;8.02;;;6.80;99.90;;;;;;4969645;28;20030;-62
2020/12/03 11:33:36;;;;;;;23.60;8.18;;;6.80;99.90;;;;;;4970509;28;20026;-64
2020/12/03 11:36:12;;;;;;;17.42;8.15;;;6.80;99.90;;;;;;4968084;28;20043;-61
2020/12/03 11:38:41;;;;;;;21.25;7.88;;;6.90;99.90;;;;;;4970485;28;20035;-63
2020/12/03 11:41:11;;;;;;;19.98;7.75;;;6.80;99.90;;;;;;4970994;28;20034;-62
2020/12/03 11:48:41;;;;;;;16.23;8.35;;;6.90;99.90;;;;;;4972173;28;20438;-61
2020/12/03 11:51:07;;;;;;;19.60;6.88;;;6.90;99.90;;;;;;4972055;28;20038;-61
2020/12/03 11:53:32;;;;;;;18.33;7.60;;;6.90;99.90;;;;;;4968100;28;20039;-62
2020/12/03 11:55:58;;;;;;;23.98;8.70;;;6.90;99.90;;;;;;4967883;28;20035;-60
2020/12/03 11:58:30;;;;;;;17.70;7.88;;;6.90;99.90;;;;;;4969020;28;20031;-62
2020/12/03 12:01:12;;;;;;;16.33;8.05;;;6.90;99.90;;;;;;4969019;28;20414;-63
2020/12/03 12:03:39;;;;;;;18.27;7.75;;;6.90;99.90;;;;;;4970500;28;20027;-62
2020/12/03 12:06:12;;;;;;;14.55;7.90;;;6.80;99.90;;;;;;4968863;28;20077;-59
2020/12/03 12:08:55;;;;;;;18.85;8.02;;;6.90;99.90;;;;;;4978665;28;20026;-67
2020/12/03 12:11:30;;;;;;;26.45;9.10;;;6.90;99.90;;;;;;4969089;28;20046;-61
2020/12/03 12:13:56;;;;;;;22.13;9.30;;;6.90;99.90;;;;;;4969852;28;20050;-60
2020/12/03 12:16:21;;;;;;;27.73;9.70;;;6.90;99.90;;;;;;4966899;28;20039;-62
2020/12/03 12:18:48;;;;;;;20.23;9.23;;;6.90;99.90;;;;;;4968491;28;20050;-62
2020/12/03 12:21:13;;;;;;;20.90;9.38;;;6.90;99.90;;;;;;4967483;28;20039;-62
2020/12/03 12:23:39;;;;;;;17.65;8.40;;;6.90;99.90;;;;;;4968430;28;20053;-62
2020/12/03 12:26:04;;;;;;;19.80;9.85;;;6.90;99.90;;;;;;4968442;28;20096;-64
2020/12/03 12:28:30;;;;;;;19.60;8.85;;;6.80;99.90;;;;;;4968504;28;20027;-62
2020/12/03 12:30:55;;;;;;;20.10;8.73;;;6.80;99.90;;;;;;4974856;28;20031;-62
2020/12/03 12:33:21;;;;;;;15.05;7.50;;;6.80;99.90;;;;;;4967380;28;20041;-61
2020/12/03 12:35:47;;;;;;;21.45;8.35;;;6.80;99.90;;;;;;4968835;28;20043;-62
2020/12/03 12:38:13;;;;;;;17.73;7.55;;;6.70;99.90;;;;;;4969089;28;20030;-61
2020/12/03 12:40:39;;;;;;;15.52;6.85;;;6.70;99.90;;;;;;4969056;28;20069;-62
2020/12/03 12:43:05;;;;;;;14.65;7.10;;;6.70;99.90;;;;;;4969885;28;20459;-63
2020/12/03 12:45:31;;;;;;;18.38;7.75;;;6.70;99.90;;;;;;4969830;28;20439;-63
2020/12/03 12:47:57;;;;;;;13.73;6.88;;;6.80;99.90;;;;;;4977561;28;20058;-63
2020/12/03 12:50:23;;;;;;;16.10;6.90;;;6.80;99.90;;;;;;4968553;28;20122;-63
2020/12/03 12:52:48;;;;;;;15.55;7.13;;;6.70;99.90;;;;;;4970825;28;20129;-63
2020/12/03 12:55:14;;;;;;;13.82;6.45;;;6.70;99.90;;;;;;4969071;28;20097;-62
2020/12/03 12:57:40;;;;;;;13.63;6.75;;;6.70;99.90;;;;;;4970351;28;20483;-60
2020/12/03 13:00:07;;;;;;;13.63;6.35;;;6.70;99.90;;;;;;4971524;28;20121;-60
2020/12/03 13:02:32;;;;;;;13.60;7.13;;;6.80;99.90;;;;;;4970791;28;20042;-62
2020/12/03 13:04:58;;;;;;;11.75;5.82;;;6.70;99.90;;;;;;4971901;28;20110;-62
2020/12/03 13:07:23;;;;;;;13.27;6.03;;;6.70;99.90;;;;;;4970102;28;20027;-62
2020/12/03 13:09:49;;;;;;;13.60;6.80;;;6.70;99.90;;;;;;4970295;28;20039;-61
2020/12/03 13:12:17;;;;;;;13.10;6.38;;;6.60;99.90;;;;;;4971463;28;20054;-62
2020/12/03 13:14:42;;;;;;;13.93;5.80;;;6.60;99.90;;;;;;4969510;28;20034;-61